createdAt,value
2023-04-10T00:00:20.543Z,6.80
2023-04-10T00:02:51.603Z,6.75
2023-04-10T00:05:22.614Z,6.73
2023-04-10T00:07:53.637Z,6.74
2023-04-10T00:10:26.506Z,6.73
2023-04-10T00:12:57.413Z,6.72
2023-04-10T00:15:28.862Z,6.69
2023-04-10T00:17:59.723Z,6.64
2023-04-10T00:20:30.606Z,6.58
2023-04-10T00:23:01.436Z,6.53
2023-04-10T00:25:32.269Z,6.53
2023-04-10T00:28:03.081Z,6.53
2023-04-10T00:30:33.924Z,6.50
2023-04-10T00:33:04.614Z,6.43
2023-04-10T00:35:36.005Z,6.39
2023-04-10T00:38:06.648Z,6.38
2023-04-10T00:40:37.393Z,6.37
2023-04-10T00:43:08.040Z,6.35
2023-04-10T00:45:39.826Z,6.32
2023-04-10T00:48:11.274Z,6.31
2023-04-10T00:50:42.102Z,6.30
2023-04-10T00:53:12.986Z,6.29
2023-04-10T00:55:44.181Z,6.28
2023-04-10T00:58:14.905Z,6.24
2023-04-10T01:00:45.586Z,6.17
2023-04-10T01:03:20.584Z,6.05
2023-04-10T01:06:03.666Z,5.97
2023-04-10T01:08:46.581Z,5.88
2023-04-10T01:11:25.205Z,5.84
2023-04-10T01:14:06.564Z,5.85
2023-04-10T01:16:44.141Z,5.87
2023-04-10T01:19:26.753Z,5.87
2023-04-10T01:22:00.832Z,5.86
2023-04-10T01:24:49.966Z,5.80
2023-04-10T01:27:37.435Z,5.77
2023-04-10T01:30:13.390Z,5.78
2023-04-10T01:32:44.956Z,5.79
2023-04-10T01:35:18.662Z,5.76
2023-04-10T01:37:53.304Z,5.72
2023-04-10T01:40:26.126Z,5.69
2023-04-10T01:43:00.314Z,5.69
2023-04-10T01:45:41.677Z,5.68
2023-04-10T01:48:12.663Z,5.61
2023-04-10T01:50:43.689Z,5.58
2023-04-10T01:53:15.884Z,5.56
2023-04-10T01:55:46.940Z,5.55
2023-04-10T01:58:18.304Z,5.48
2023-04-10T02:00:49.211Z,5.40
2023-04-10T02:03:20.293Z,5.33
2023-04-10T02:06:03.849Z,5.34
2023-04-10T02:08:38.827Z,5.33
2023-04-10T02:11:18.705Z,5.31
2023-04-10T02:13:52.365Z,5.21
2023-04-10T02:16:24.898Z,5.22
2023-04-10T02:18:56.789Z,5.23
2023-04-10T02:21:29.149Z,5.26
2023-04-10T02:24:01.278Z,5.28
2023-04-10T02:26:32.117Z,5.26
2023-04-10T02:29:02.921Z,5.19
2023-04-10T02:31:33.609Z,5.12
2023-04-10T02:34:04.275Z,5.11
2023-04-10T02:36:35.393Z,5.07
2023-04-10T02:39:08.233Z,5.05
2023-04-10T02:41:40.526Z,4.98
2023-04-10T02:44:11.862Z,4.94
2023-04-10T02:46:42.914Z,4.90
2023-04-10T02:49:14.141Z,4.90
2023-04-10T02:51:44.869Z,4.91
2023-04-10T02:54:15.526Z,4.92
2023-04-10T02:56:46.457Z,4.96
2023-04-10T02:59:17.781Z,4.98
2023-04-10T03:01:48.593Z,5.00
2023-04-10T03:04:19.934Z,5.00
2023-04-10T03:06:50.932Z,4.94
2023-04-10T03:09:21.742Z,4.87
2023-04-10T03:11:52.607Z,4.84
2023-04-10T03:14:23.341Z,4.78
2023-04-10T03:16:54.053Z,4.74
2023-04-10T03:19:26.787Z,4.77
2023-04-10T03:21:57.580Z,4.83
2023-04-10T03:24:28.933Z,4.89
2023-04-10T03:27:01.649Z,4.93
2023-04-10T03:29:32.556Z,4.96
2023-04-10T03:32:03.465Z,5.00
2023-04-10T03:34:34.624Z,5.02
2023-04-10T03:37:05.588Z,5.09
2023-04-10T03:39:37.334Z,5.12
2023-04-10T03:42:08.179Z,5.18
2023-04-10T03:44:39.829Z,5.24
2023-04-10T03:47:12.275Z,5.25
2023-04-10T03:49:44.877Z,5.22
2023-04-10T03:52:15.545Z,5.17
2023-04-10T03:54:46.506Z,5.19
2023-04-10T03:57:26.484Z,5.19
2023-04-10T04:00:01.757Z,5.15
2023-04-10T04:02:52.834Z,5.14
2023-04-10T04:05:44.250Z,5.14
2023-04-10T04:08:36.181Z,5.14
2023-04-10T04:11:29.465Z,5.16
2023-04-10T04:14:06.918Z,5.16
2023-04-10T04:16:56.598Z,5.18
2023-04-10T04:19:27.514Z,5.17
2023-04-10T04:22:26.192Z,5.19
2023-04-10T04:25:16.428Z,5.19
2023-04-10T04:28:26.148Z,5.19
2023-04-10T04:31:16.497Z,5.19
2023-04-10T04:34:13.023Z,5.20
2023-04-10T04:36:43.672Z,5.20
2023-04-10T04:39:27.943Z,5.20
2023-04-10T04:42:08.743Z,5.21
2023-04-10T04:44:53.950Z,5.20
2023-04-10T04:47:51.039Z,5.18
2023-04-10T04:50:31.357Z,5.18
2023-04-10T04:53:28.128Z,5.22
2023-04-10T04:56:31.154Z,5.26
2023-04-10T04:59:28.262Z,5.25
2023-04-10T05:02:18.942Z,5.22
2023-04-10T05:05:10.102Z,5.15
2023-04-10T05:07:48.764Z,5.11
2023-04-10T05:10:30.652Z,5.11
2023-04-10T05:13:20.041Z,5.10
2023-04-10T05:16:10.910Z,5.10
2023-04-10T05:18:59.879Z,5.17
2023-04-10T05:21:59.883Z,5.26
2023-04-10T05:24:47.128Z,5.33
2023-04-10T05:27:23.366Z,5.38
2023-04-10T05:30:14.852Z,5.41
2023-04-10T05:33:02.541Z,5.41
2023-04-10T05:35:39.061Z,5.48
2023-04-10T05:38:35.990Z,5.77
2023-04-10T05:41:20.974Z,6.22
2023-04-10T05:44:22.366Z,6.64
2023-04-10T05:47:19.530Z,7.00
2023-04-10T05:49:59.774Z,7.35
2023-04-10T05:52:54.038Z,7.76
2023-04-10T05:55:33.773Z,7.95
2023-04-10T05:58:28.128Z,8.07
2023-04-10T06:01:24.830Z,8.24
2023-04-10T06:04:03.336Z,8.43
2023-04-10T06:06:34.861Z,8.69
2023-04-10T06:09:05.681Z,9.05
2023-04-10T06:11:36.641Z,9.29
2023-04-10T06:14:08.189Z,9.50
2023-04-10T06:16:45.749Z,9.72
2023-04-10T06:19:16.505Z,10.05
2023-04-10T06:21:47.093Z,10.33
2023-04-10T06:24:17.797Z,10.54
2023-04-10T06:26:50.913Z,10.80
2023-04-10T06:29:21.639Z,11.16
2023-04-10T06:31:52.944Z,11.51
2023-04-10T06:34:23.953Z,11.79
2023-04-10T06:37:03.338Z,12.03
2023-04-10T06:39:34.095Z,12.29
2023-04-10T06:42:04.974Z,12.58
2023-04-10T06:44:46.109Z,12.90
2023-04-10T06:47:18.328Z,13.10
2023-04-10T06:49:48.970Z,13.30
2023-04-10T06:52:20.801Z,13.45
2023-04-10T06:54:51.371Z,13.56
2023-04-10T06:57:21.973Z,13.71
2023-04-10T06:59:52.680Z,13.97
2023-04-10T07:02:23.718Z,14.21
2023-04-10T07:04:54.770Z,14.40
2023-04-10T07:07:25.397Z,14.49
2023-04-10T07:09:57.817Z,14.62
2023-04-10T07:12:26.925Z,14.76
2023-04-10T07:14:57.660Z,14.85
2023-04-10T07:17:28.509Z,14.94
2023-04-10T07:19:59.291Z,15.03
2023-04-10T07:22:29.853Z,15.17
2023-04-10T07:25:00.508Z,15.26
2023-04-10T07:27:31.123Z,15.29
2023-04-10T07:30:01.774Z,15.36
2023-04-10T07:32:34.272Z,15.48
2023-04-10T07:35:05.146Z,15.57
2023-04-10T07:37:36.054Z,15.62
2023-04-10T07:40:08.405Z,15.65
2023-04-10T07:42:39.319Z,15.73
2023-04-10T07:45:12.251Z,15.85
2023-04-10T07:47:42.989Z,15.98
2023-04-10T07:50:13.734Z,16.05
2023-04-10T07:52:44.518Z,16.19
2023-04-10T07:55:15.656Z,16.26
2023-04-10T07:57:46.635Z,16.19
2023-04-10T08:00:19.428Z,16.07
2023-04-10T08:02:50.253Z,16.09
2023-04-10T08:05:21.645Z,16.02
2023-04-10T08:07:52.361Z,16.22
2023-04-10T08:10:23.168Z,16.38
2023-04-10T08:12:53.852Z,16.45
2023-04-10T08:15:24.750Z,16.56
2023-04-10T08:17:55.733Z,16.75
2023-04-10T08:20:26.555Z,16.94
2023-04-10T08:23:01.010Z,17.10
2023-04-10T08:25:43.469Z,17.24
2023-04-10T08:28:14.147Z,17.34
2023-04-10T08:30:44.890Z,17.44
2023-04-10T08:33:16.793Z,17.46
2023-04-10T08:35:50.003Z,17.55
2023-04-10T08:38:21.436Z,17.68
2023-04-10T08:40:52.353Z,17.77
2023-04-10T08:43:23.166Z,17.80
2023-04-10T08:45:54.705Z,17.88
2023-04-10T08:48:39.220Z,17.94
2023-04-10T08:51:19.501Z,18.01
2023-04-10T08:53:55.419Z,18.15
2023-04-10T08:56:27.964Z,18.22
2023-04-10T08:58:57.034Z,18.26
2023-04-10T09:01:27.982Z,18.29
2023-04-10T09:03:59.783Z,18.37
2023-04-10T09:06:29.388Z,18.44
2023-04-10T09:12:03.910Z,18.41
2023-04-10T09:14:36.401Z,18.30
2023-04-10T09:17:19.217Z,18.21
2023-04-10T09:19:52.496Z,18.25
2023-04-10T09:22:33.013Z,18.33
2023-04-10T09:25:05.047Z,18.48
2023-04-10T09:27:37.410Z,18.64
2023-04-10T09:30:10.229Z,18.66
2023-04-10T09:32:44.102Z,18.64
2023-04-10T09:35:16.330Z,18.72
2023-04-10T09:37:48.680Z,18.71
2023-04-10T09:40:26.453Z,18.65
2023-04-10T09:42:57.699Z,18.69
2023-04-10T09:45:28.530Z,18.73
2023-04-10T09:48:06.831Z,18.77
2023-04-10T09:50:41.796Z,18.84
2023-04-10T09:53:14.077Z,18.91
2023-04-10T09:55:45.410Z,18.92
2023-04-10T09:58:16.900Z,18.93
2023-04-10T10:00:48.681Z,18.85
2023-04-10T10:03:21.065Z,18.71
2023-04-10T10:05:53.794Z,18.57
2023-04-10T10:08:25.355Z,18.45
2023-04-10T10:10:59.137Z,18.41
2023-04-10T10:13:36.136Z,18.49
2023-04-10T10:16:13.831Z,18.51
2023-04-10T10:18:53.872Z,18.52
2023-04-10T10:21:26.581Z,18.47
2023-04-10T10:23:59.583Z,18.36
2023-04-10T10:26:34.758Z,18.20
2023-04-10T10:29:10.548Z,18.09
2023-04-10T10:31:41.513Z,18.16
2023-04-10T10:34:12.285Z,18.30
2023-04-10T10:36:43.570Z,18.39
2023-04-10T10:39:25.837Z,18.34
2023-04-10T10:42:07.622Z,18.41
2023-04-10T10:44:44.070Z,18.44
2023-04-10T10:47:20.772Z,18.24
2023-04-10T10:50:02.741Z,18.22
2023-04-10T10:52:49.189Z,18.29
2023-04-10T10:55:38.469Z,18.28
2023-04-10T10:58:11.259Z,18.20
2023-04-10T11:01:10.618Z,18.15
2023-04-10T11:03:41.952Z,18.17
2023-04-10T11:06:13.761Z,18.22
2023-04-10T11:08:48.952Z,18.26
2023-04-10T11:11:23.204Z,18.30
2023-04-10T11:14:18.889Z,18.36
2023-04-10T11:16:50.300Z,18.28
2023-04-10T11:19:23.630Z,18.24
2023-04-10T11:22:09.159Z,18.10
2023-04-10T11:25:08.570Z,17.96
2023-04-10T11:27:46.202Z,17.94
2023-04-10T11:30:30.600Z,17.94
2023-04-10T11:33:02.355Z,17.95
2023-04-10T11:35:34.027Z,17.99
2023-04-10T11:38:16.996Z,18.05
2023-04-10T11:41:02.870Z,17.91
2023-04-10T11:43:35.264Z,17.81
2023-04-10T11:46:08.658Z,17.76
2023-04-10T11:48:39.519Z,17.79
2023-04-10T11:51:15.036Z,17.79
2023-04-10T11:53:46.337Z,17.76
2023-04-10T11:56:24.011Z,17.73
2023-04-10T11:58:55.366Z,17.67
2023-04-10T12:01:26.296Z,17.58
2023-04-10T12:03:57.314Z,17.54
2023-04-10T12:06:28.662Z,17.55
2023-04-10T12:08:59.403Z,17.58
2023-04-10T12:11:30.121Z,17.59
2023-04-10T12:14:00.701Z,17.60
2023-04-10T12:16:33.577Z,17.58
2023-04-10T12:19:04.972Z,17.56
2023-04-10T12:21:36.741Z,17.58
2023-04-10T12:24:07.880Z,17.62
2023-04-10T12:26:38.796Z,17.69
2023-04-10T12:29:10.020Z,17.72
2023-04-10T12:31:40.899Z,17.73
2023-04-10T12:34:11.970Z,17.74
2023-04-10T12:36:42.838Z,17.74
2023-04-10T12:39:26.863Z,17.76
2023-04-10T12:42:13.920Z,17.80
2023-04-10T12:44:55.656Z,17.81
2023-04-10T12:47:29.846Z,17.79
2023-04-10T12:50:10.070Z,17.78
2023-04-10T12:52:42.549Z,17.74
2023-04-10T12:55:17.649Z,17.70
2023-04-10T12:57:51.791Z,17.66
2023-04-10T13:00:22.743Z,17.65
2023-04-10T13:02:53.639Z,17.66
2023-04-10T13:05:25.189Z,17.65
2023-04-10T13:07:55.986Z,17.61
2023-04-10T13:10:26.908Z,17.58
2023-04-10T13:12:57.680Z,17.50
2023-04-10T13:15:28.443Z,17.45
2023-04-10T13:17:59.332Z,17.42
2023-04-10T13:20:31.250Z,17.41
2023-04-10T13:23:02.820Z,17.43
2023-04-10T13:25:37.503Z,17.43
2023-04-10T13:28:11.589Z,17.41
2023-04-10T13:30:42.913Z,17.41
2023-04-10T13:33:13.729Z,17.41
2023-04-10T13:35:44.685Z,17.42
2023-04-10T13:38:16.040Z,17.45
2023-04-10T13:40:47.116Z,17.47
2023-04-10T13:43:18.239Z,17.44
2023-04-10T13:45:50.042Z,17.39
2023-04-10T13:48:24.534Z,17.38
2023-04-10T13:50:58.010Z,17.34
2023-04-10T13:53:29.008Z,17.28
2023-04-10T13:55:59.844Z,17.24
2023-04-10T13:58:32.176Z,17.21
2023-04-10T14:01:03.320Z,17.17
2023-04-10T14:03:34.342Z,17.11
2023-04-10T14:06:05.499Z,17.07
2023-04-10T14:08:36.139Z,17.00
2023-04-10T14:11:07.654Z,16.98
2023-04-10T14:13:38.443Z,16.98
2023-04-10T14:16:10.462Z,16.95
2023-04-10T14:18:41.219Z,16.92
2023-04-10T14:21:13.067Z,16.91
2023-04-10T14:23:44.140Z,16.89
2023-04-10T14:26:14.949Z,16.83
2023-04-10T14:28:45.655Z,16.70
2023-04-10T14:31:16.333Z,16.62
2023-04-10T14:33:47.055Z,16.57
2023-04-10T14:36:17.928Z,16.53
2023-04-10T14:38:48.539Z,16.51
2023-04-10T14:41:20.656Z,16.50
2023-04-10T14:43:51.330Z,16.48
2023-04-10T14:46:22.057Z,16.46
2023-04-10T14:48:52.908Z,16.44
2023-04-10T14:51:23.657Z,16.42
2023-04-10T14:53:54.352Z,16.40
2023-04-10T14:56:25.374Z,16.39
2023-04-10T14:58:56.166Z,16.39
2023-04-10T15:01:27.069Z,16.38
2023-04-10T15:03:58.035Z,16.35
2023-04-10T15:06:29.567Z,16.33
2023-04-10T15:09:00.954Z,16.28
2023-04-10T15:11:31.669Z,16.24
2023-04-10T15:14:03.060Z,16.19
2023-04-10T15:16:33.857Z,16.15
2023-04-10T15:19:04.612Z,16.13
2023-04-10T15:21:35.749Z,16.13
2023-04-10T15:24:06.707Z,16.10
2023-04-10T15:26:37.618Z,16.06
2023-04-10T15:29:08.235Z,16.02
2023-04-10T15:31:39.181Z,15.99
2023-04-10T15:34:10.562Z,15.96
2023-04-10T15:36:41.241Z,15.91
2023-04-10T15:39:13.339Z,15.80
2023-04-10T15:41:43.970Z,15.85
2023-04-10T15:44:14.683Z,15.82
2023-04-10T15:46:47.099Z,15.78
2023-04-10T15:49:29.923Z,15.73
2023-04-10T15:52:08.069Z,15.68
2023-04-10T15:54:39.507Z,15.65
2023-04-10T15:57:10.666Z,15.60
2023-04-10T15:59:41.403Z,15.54
2023-04-10T16:02:12.509Z,15.49
2023-04-10T16:04:43.419Z,15.45
2023-04-10T16:07:14.086Z,15.40
2023-04-10T16:09:44.781Z,15.38
2023-04-10T16:12:16.811Z,15.36
2023-04-10T16:14:47.458Z,15.34
2023-04-10T16:17:18.320Z,15.30
2023-04-10T16:19:49.046Z,15.28
2023-04-10T16:22:19.761Z,15.27
2023-04-10T16:24:50.445Z,15.26
2023-04-10T16:27:21.061Z,15.25
2023-04-10T16:29:51.745Z,15.25
2023-04-10T16:32:23.201Z,15.23
2023-04-10T16:34:54.121Z,15.22
2023-04-10T16:37:24.801Z,15.20
2023-04-10T16:39:56.121Z,15.11
2023-04-10T16:42:26.836Z,15.16
2023-04-10T16:44:58.239Z,15.15
2023-04-10T16:47:29.018Z,15.13
2023-04-10T16:49:59.882Z,15.13
2023-04-10T16:52:32.140Z,15.12
2023-04-10T16:55:03.115Z,15.09
2023-04-10T16:57:34.109Z,15.08
2023-04-10T17:00:05.793Z,15.05
2023-04-10T17:02:36.728Z,15.02
2023-04-10T17:05:08.450Z,14.99
2023-04-10T17:07:39.300Z,14.97
2023-04-10T17:10:11.709Z,14.94
2023-04-10T17:12:43.621Z,14.91
2023-04-10T17:15:15.039Z,14.83
2023-04-10T17:17:45.875Z,14.83
2023-04-10T17:20:17.030Z,14.79
2023-04-10T17:22:49.371Z,14.74
2023-04-10T17:25:18.790Z,14.70
2023-04-10T17:27:49.543Z,14.66
2023-04-10T17:30:20.848Z,14.60
2023-04-10T17:32:51.769Z,14.56
2023-04-10T17:35:22.776Z,14.51
2023-04-10T17:37:54.100Z,14.46
2023-04-10T17:40:25.681Z,14.41
2023-04-10T17:42:56.472Z,14.36
2023-04-10T17:45:27.285Z,14.31
2023-04-10T17:47:58.049Z,14.26
2023-04-10T17:50:28.828Z,14.22
2023-04-10T17:53:00.148Z,14.17
2023-04-10T17:55:30.924Z,14.13
2023-04-10T17:58:01.619Z,14.09
2023-04-10T18:00:32.632Z,14.04
2023-04-10T18:03:03.349Z,14.00
2023-04-10T18:05:36.668Z,13.96
2023-04-10T18:08:08.591Z,13.92
2023-04-10T18:10:39.261Z,13.87
2023-04-10T18:13:10.263Z,13.83
2023-04-10T18:15:41.087Z,13.78
2023-04-10T18:18:11.718Z,13.74
2023-04-10T18:20:42.476Z,13.68
2023-04-10T18:23:13.170Z,13.64
2023-04-10T18:25:52.452Z,13.61
2023-04-10T18:28:23.102Z,13.58
2023-04-10T18:30:56.768Z,13.54
2023-04-10T18:33:27.909Z,13.51
2023-04-10T18:35:59.671Z,13.46
2023-04-10T18:38:31.049Z,13.43
2023-04-10T18:41:02.026Z,13.41
2023-04-10T18:43:32.752Z,13.38
2023-04-10T18:46:03.534Z,13.35
2023-04-10T18:48:41.446Z,13.31
2023-04-10T18:51:13.071Z,13.27
2023-04-10T18:53:43.761Z,13.24
2023-04-10T18:56:14.693Z,13.20
2023-04-10T18:58:47.464Z,13.16
2023-04-10T19:01:20.008Z,13.13
2023-04-10T19:03:52.598Z,13.10
2023-04-10T19:06:24.656Z,13.06
2023-04-10T19:08:56.047Z,13.02
2023-04-10T19:11:26.813Z,12.98
2023-04-10T19:13:57.703Z,12.94
2023-04-10T19:16:28.885Z,12.91
2023-04-10T19:19:01.439Z,12.88
2023-04-10T19:21:31.734Z,12.84
2023-04-10T19:24:02.712Z,12.81
2023-04-10T19:26:33.518Z,12.77
2023-04-10T19:29:04.434Z,12.74
2023-04-10T19:31:35.730Z,12.78
2023-04-10T19:34:09.348Z,12.77
2023-04-10T19:36:40.613Z,12.74
2023-04-10T19:39:11.238Z,12.71
2023-04-10T19:41:43.696Z,12.67
2023-04-10T19:44:14.464Z,12.65
2023-04-10T19:46:45.273Z,12.62
2023-04-10T19:49:16.381Z,12.60
2023-04-10T19:51:47.243Z,12.57
2023-04-10T19:54:17.914Z,12.54
2023-04-10T19:56:48.704Z,12.50
2023-04-10T19:59:19.443Z,12.53
2023-04-10T20:01:50.212Z,12.59
2023-04-10T20:04:21.014Z,12.64
2023-04-10T20:06:51.882Z,12.69
2023-04-10T20:09:22.587Z,12.73
2023-04-10T20:11:53.335Z,12.76
2023-04-10T20:14:24.025Z,12.79
2023-04-10T20:16:54.719Z,12.82
2023-04-10T20:19:25.338Z,12.85
2023-04-10T20:21:56.075Z,12.86
2023-04-10T20:24:26.787Z,12.85
2023-04-10T20:26:57.768Z,12.86
2023-04-10T20:29:29.028Z,12.86
2023-04-10T20:31:59.725Z,12.85
2023-04-10T20:34:30.481Z,12.86
2023-04-10T20:37:01.394Z,12.87
2023-04-10T20:39:32.878Z,12.88
2023-04-10T20:42:03.599Z,12.87
2023-04-10T20:44:38.866Z,12.89
2023-04-10T20:47:09.728Z,12.89
2023-04-10T20:49:40.699Z,12.89
2023-04-10T20:52:11.405Z,12.86
2023-04-10T20:54:42.137Z,12.85
2023-04-10T20:57:13.146Z,12.85
2023-04-10T20:59:43.983Z,12.85
2023-04-10T21:02:14.695Z,12.83
2023-04-10T21:04:45.560Z,12.81
2023-04-10T21:07:16.320Z,12.79
2023-04-10T21:09:46.999Z,12.77
2023-04-10T21:12:17.977Z,12.75
2023-04-10T21:14:48.852Z,12.75
2023-04-10T21:17:20.676Z,12.75
2023-04-10T21:19:51.351Z,12.74
2023-04-10T21:22:22.097Z,12.71
2023-04-10T21:24:53.007Z,12.70
2023-04-10T21:27:24.046Z,12.69
2023-04-10T21:29:54.712Z,12.68
2023-04-10T21:32:25.938Z,12.69
2023-04-10T21:34:56.856Z,12.71
2023-04-10T21:37:27.820Z,12.74
2023-04-10T21:39:58.689Z,12.75
2023-04-10T21:42:29.421Z,12.75
2023-04-10T21:45:00.602Z,12.72
2023-04-10T21:47:31.339Z,12.71
2023-04-10T21:50:02.044Z,12.68
2023-04-10T21:52:32.683Z,12.66
2023-04-10T21:55:06.192Z,12.64
2023-04-10T21:57:37.163Z,12.61
2023-04-10T22:00:10.296Z,12.58
2023-04-10T22:02:41.153Z,12.54
2023-04-10T22:05:13.114Z,12.48
2023-04-10T22:07:43.803Z,12.45
2023-04-10T22:10:14.691Z,12.44
2023-04-10T22:12:48.492Z,12.45
2023-04-10T22:15:19.620Z,12.45
2023-04-10T22:17:50.377Z,12.45
2023-04-10T22:20:21.146Z,12.43
2023-04-10T22:22:51.752Z,12.43
2023-04-10T22:25:22.495Z,12.42
2023-04-10T22:27:53.093Z,12.43
2023-04-10T22:30:24.371Z,12.43
2023-04-10T22:32:58.212Z,12.43
2023-04-10T22:35:28.971Z,12.41
2023-04-10T22:37:59.705Z,12.41
2023-04-10T22:40:30.483Z,12.40
2023-04-10T22:43:01.129Z,12.36
2023-04-10T22:45:31.827Z,12.37
2023-04-10T22:48:02.612Z,12.36
2023-04-10T22:50:33.356Z,12.35
2023-04-10T22:53:04.144Z,12.34
2023-04-10T22:55:34.721Z,12.32
2023-04-10T22:58:05.494Z,12.31
2023-04-10T23:00:36.969Z,12.29
2023-04-10T23:03:08.111Z,12.28
2023-04-10T23:05:38.934Z,12.29
2023-04-10T23:08:09.569Z,12.28
2023-04-10T23:10:40.144Z,12.29
2023-04-10T23:13:10.948Z,12.29
2023-04-10T23:15:41.833Z,12.29
2023-04-10T23:18:16.073Z,12.29
2023-04-10T23:20:47.249Z,12.29
2023-04-10T23:23:18.822Z,12.30
2023-04-10T23:25:57.684Z,12.29
2023-04-10T23:28:28.451Z,12.28
2023-04-10T23:30:59.356Z,12.28
2023-04-10T23:33:30.907Z,12.28
2023-04-10T23:36:01.850Z,12.26
2023-04-10T23:38:32.566Z,12.25
2023-04-10T23:41:03.962Z,12.24
2023-04-10T23:43:34.840Z,12.24
2023-04-10T23:46:05.559Z,12.25
2023-04-10T23:48:36.484Z,12.26
2023-04-10T23:51:08.891Z,12.26
2023-04-10T23:53:39.540Z,12.24
2023-04-10T23:56:11.542Z,12.24
2023-04-10T23:58:42.306Z,12.25
